Terminal Aerodrome Forecast
Issued by NWS

Home | Current Version | Previous Version | Graphics & Text | Print | Product List | Glossary On
Versions: 1 2 3 4 5 6 7 8 9 10 11 12 13 14 15 16
503
FTUS43 KIWX 051720
TAFSBN
TAF
KSBN 051720Z 0518/0618 28006KT P6SM -SN BKN018 OVC030
     FM052200 26006KT P6SM BKN030 OVC050
     FM060500 22007KT P6SM BKN050 OVC100=

USA.gov is the U.S. government's official web portal to all federal, state and local government web resources and services.